Time;durP1;ratioP1;P1;durP2;ratioP2;P2;SDS_P1;SDS_P2;PMS_P1;PMS_P2;Temp;Humidity;BMP_temperature;BMP_pressure;BME280_temperature;BME280_humidity;BME280_pressure;Samples;Min_cycle;Max_cycle;Signal;HPM_P1;HPM_P2
2022/06/07 00:01:23;;;;;;;;;;;;;;;22.91;54.45;99745.25;4324254;33;20342;-93
2022/06/07 00:03:50;;;;;;;;;;;;;;;22.82;54.67;99755.28;4331737;33;19968;-89
2022/06/07 00:06:17;;;;;;;;;;;;;;;22.70;55.07;99746.88;4324692;33;19976;-93
2022/06/07 00:08:43;;;;;;;;;;;;;;;22.73;54.88;99752.03;4324617;33;20352;-90
2022/06/07 00:11:11;;;;;;;;;;;;;;;22.42;55.83;99743.47;4324559;33;19984;-84
2022/06/07 00:13:38;;;;;;;;;;;;;;;22.50;55.44;99744.94;4325910;33;19994;-92
2022/06/07 00:16:05;;;;;;;;;;;;;;;22.44;55.49;99749.56;4334881;32;19979;-90
2022/06/07 00:18:32;;;;;;;;;;;;;;;22.46;55.49;99747.72;4326822;32;19986;-82
2022/06/07 00:21:01;;;;;;;;;;;;;;;22.57;55.10;99756.13;4326364;33;20009;-89
2022/06/07 00:23:28;;;;;;;;;;;;;;;22.44;55.55;99744.28;4338762;32;20084;-86
2022/06/07 00:25:55;;;;;;;;;;;;;;;22.49;55.42;99747.63;4334561;33;20487;-90
2022/06/07 00:28:22;;;;;;;;;;;;;;;22.28;56.13;99744.81;4333448;33;20099;-90
2022/06/07 00:30:49;;;;;;;;;;;;;;;22.43;55.75;99747.81;4341254;32;19979;-90
2022/06/07 00:33:17;;;;;;;;;;;;;;;22.42;55.65;99746.09;4339751;32;20055;-83
2022/06/07 00:35:44;;;;;;;;;;;;;;;22.56;54.96;99743.88;4334077;32;19995;-90
2022/06/07 00:38:11;;;;;;;;;;;;;;;22.49;55.03;99737.06;4328436;32;20345;-85
2022/06/07 00:40:38;;;;;;;;;;;;;;;22.58;54.83;99739.38;4332903;33;20029;-90
2022/06/07 00:43:05;;;;;;;;;;;;;;;22.46;55.13;99742.44;4325475;33;19972;-90
2022/06/07 00:45:32;;;;;;;;;;;;;;;22.39;55.42;99738.28;4328575;32;20333;-92
2022/06/07 00:47:59;;;;;;;;;;;;;;;22.36;55.47;99735.75;4332290;33;20018;-89
2022/06/07 00:50:41;;;;;;;;;;;;;;;22.42;55.17;99741.69;4335041;32;19998;-90
2022/06/07 00:53:16;;;;;;;;;;;;;;;22.44;55.04;99739.88;4337267;33;20005;-93
2022/06/07 00:55:43;;;;;;;;;;;;;;;22.42;55.06;99736.41;4334753;33;20380;-91
2022/06/07 00:58:10;;;;;;;;;;;;;;;22.43;54.93;99742.53;4328628;32;20002;-88
2022/06/07 01:00:37;;;;;;;;;;;;;;;22.54;54.66;99740.41;4332792;33;19983;-92
2022/06/07 01:03:04;;;;;;;;;;;;;;;22.41;54.95;99732.06;4326647;33;19984;-89
2022/06/07 01:05:32;;;;;;;;;;;;;;;22.38;55.24;99728.66;4332018;33;19987;-87
2022/06/07 01:10:46;;;;;;;;;;;;;;;22.17;55.79;99725.81;4326150;33;19983;-87
2022/06/07 01:13:15;;;;;;;;;;;;;;;22.06;56.33;99727.94;4342105;32;20033;-88
2022/06/07 01:15:45;;;;;;;;;;;;;;;22.18;55.62;99724.94;4338861;32;19987;-88
2022/06/07 01:18:13;;;;;;;;;;;;;;;22.34;55.14;99722.62;4340802;32;20026;-90
2022/06/07 01:20:40;;;;;;;;;;;;;;;22.20;55.71;99720.44;4340073;33;19988;-89
2022/06/07 01:23:07;;;;;;;;;;;;;;;22.11;56.03;99723.34;4322483;33;19980;-89
2022/06/07 01:25:35;;;;;;;;;;;;;;;22.07;56.33;99719.09;4315434;33;20342;-93
2022/06/07 01:28:02;;;;;;;;;;;;;;;22.09;56.17;99716.44;4323804;33;20072;-90
2022/06/07 01:30:29;;;;;;;;;;;;;;;22.19;55.68;99718.75;4328315;33;19992;-90
2022/06/07 01:32:57;;;;;;;;;;;;;;;22.14;55.76;99717.97;4326274;33;19984;-90
2022/06/07 01:35:25;;;;;;;;;;;;;;;22.21;55.28;99716.91;4332354;32;21042;-90
2022/06/07 01:37:52;;;;;;;;;;;;;;;22.11;55.58;99715.44;4363956;32;20053;-89
2022/06/07 01:43:06;;;;;;;;;;;;;;;22.23;55.08;99709.81;4356420;32;19999;-91
2022/06/07 01:45:33;;;;;;;;;;;;;;;22.17;55.31;99704.72;4355428;32;19980;-90
2022/06/07 01:48:00;;;;;;;;;;;;;;;22.33;54.71;99706.84;4360665;32;20323;-90
2022/06/07 01:50:27;;;;;;;;;;;;;;;22.34;54.63;99711.22;4358681;32;20034;-90
2022/06/07 01:52:54;;;;;;;;;;;;;;;22.35;54.67;99702.41;4337340;32;19987;-89
2022/06/07 01:55:22;;;;;;;;;;;;;;;22.23;54.76;99704.53;4356543;32;20002;-87
2022/06/07 01:57:49;;;;;;;;;;;;;;;22.12;55.09;99711.91;4363546;32;20382;-89
2022/06/07 02:00:16;;;;;;;;;;;;;;;22.07;55.28;99708.56;4354519;32;19983;-84
2022/06/07 02:02:46;;;;;;;;;;;;;;;22.15;54.86;99698.63;4342548;32;20341;-89
2022/06/07 02:05:13;;;;;;;;;;;;;;;22.21;54.75;99701.09;4356035;32;20286;-90
2022/06/07 02:07:40;;;;;;;;;;;;;;;22.03;55.40;99699.03;4346834;32;19995;-88
2022/06/07 02:10:09;;;;;;;;;;;;;;;22.07;55.22;99692.75;4359395;32;20034;-90
2022/06/07 02:12:35;;;;;;;;;;;;;;;22.17;54.74;99688.91;4355413;32;20018;-91
2022/06/07 02:15:03;;;;;;;;;;;;;;;22.11;54.90;99686.44;4368887;32;19971;-90
2022/06/07 02:17:30;;;;;;;;;;;;;;;22.03;55.09;99681.44;4370640;32;20330;-90
2022/06/07 02:19:58;;;;;;;;;;;;;;;21.90;55.62;99684.53;4370551;32;20035;-89
2022/06/07 02:22:25;;;;;;;;;;;;;;;21.89;55.32;99677.53;4370520;32;19979;-89
2022/06/07 02:24:52;;;;;;;;;;;;;;;21.86;55.44;99680.25;4365275;32;19979;-91
2022/06/07 02:27:19;;;;;;;;;;;;;;;21.92;55.21;99677.44;4361685;32;20043;-88
2022/06/07 02:29:47;;;;;;;;;;;;;;;21.86;55.31;99672.34;4359702;32;20005;-90
2022/06/07 02:32:16;;;;;;;;;;;;;;;21.78;55.64;99673.47;4341741;32;20416;-89
2022/06/07 02:34:45;;;;;;;;;;;;;;;21.86;55.40;99677.62;4341414;32;19987;-90
2022/06/07 02:37:13;;;;;;;;;;;;;;;21.82;55.44;99667.22;4342491;32;19997;-90
2022/06/07 02:39:40;;;;;;;;;;;;;;;21.77;55.81;99674.41;4349693;32;19995;-89
2022/06/07 02:42:07;;;;;;;;;;;;;;;21.83;55.77;99674.22;4355554;32;20082;-88
2022/06/07 02:44:36;;;;;;;;;;;;;;;21.73;55.84;99677.16;4365639;32;20289;-92
2022/06/07 02:47:03;;;;;;;;;;;;;;;21.58;56.09;99674.13;4355324;32;20007;-91
2022/06/07 02:49:30;;;;;;;;;;;;;;;21.79;55.44;99682.25;4346544;32;20057;-90
2022/06/07 02:51:58;;;;;;;;;;;;;;;21.83;55.47;99673.34;4362811;32;20006;-91
2022/06/07 02:54:35;;;;;;;;;;;;;;;21.63;55.94;99676.59;4355217;32;20027;-90
2022/06/07 02:57:05;;;;;;;;;;;;;;;21.56;56.26;99675.09;4355213;32;19989;-89
2022/06/07 02:59:32;;;;;;;;;;;;;;;21.55;56.11;99679.50;4341605;32;20313;-86
2022/06/07 03:01:59;;;;;;;;;;;;;;;21.67;55.74;99678.25;4354997;32;19981;-89
2022/06/07 03:04:26;;;;;;;;;;;;;;;21.48;56.33;99677.12;4355854;32;20013;-90
2022/06/07 03:06:53;;;;;;;;;;;;;;;21.68;55.79;99685.22;4362255;32;20471;-89
2022/06/07 03:09:20;;;;;;;;;;;;;;;21.51;56.31;99677.00;4354702;32;20001;-87
2022/06/07 03:11:47;;;;;;;;;;;;;;;21.49;56.32;99678.81;4341334;32;20033;-89
2022/06/07 03:14:14;;;;;;;;;;;;;;;21.54;56.10;99676.91;4362445;32;19995;-91
2022/06/07 03:16:42;;;;;;;;;;;;;;;21.69;55.66;99681.69;4365555;32;19991;-89
2022/06/07 03:19:09;;;;;;;;;;;;;;;21.72;55.59;99676.31;4354992;32;19979;-91
2022/06/07 03:21:37;;;;;;;;;;;;;;;21.51;56.46;99677.88;4354931;32;19976;-92
2022/06/07 03:24:04;;;;;;;;;;;;;;;21.63;55.94;99681.87;4359646;32;20025;-91
2022/06/07 03:26:31;;;;;;;;;;;;;;;21.69;55.91;99681.69;4362052;32;19983;-91
2022/06/07 03:28:58;;;;;;;;;;;;;;;21.59;56.28;99675.84;4360306;32;20017;-91
2022/06/07 03:31:25;;;;;;;;;;;;;;;21.50;56.71;99676.13;4357963;32;20018;-91
2022/06/07 03:33:53;;;;;;;;;;;;;;;21.74;56.18;99677.12;4354576;32;19979;-92
2022/06/07 03:36:27;;;;;;;;;;;;;;;21.72;56.47;99680.72;4361320;32;19978;-90
2022/06/07 03:38:57;;;;;;;;;;;;;;;21.81;56.32;99677.78;4355897;32;19992;-89
2022/06/07 03:41:25;;;;;;;;;;;;;;;21.90;56.23;99679.28;4354865;32;19979;-91
2022/06/07 03:43:55;;;;;;;;;;;;;;;21.92;56.49;99672.16;4358472;32;20022;-89
2022/06/07 03:46:23;;;;;;;;;;;;;;;21.87;56.84;99669.69;4359400;32;19993;-89
2022/06/07 03:48:51;;;;;;;;;;;;;;;21.97;56.54;99672.87;4356221;32;20017;-90
2022/06/07 03:51:21;;;;;;;;;;;;;;;22.02;56.66;99676.25;4341277;32;20011;-88
2022/06/07 03:53:48;;;;;;;;;;;;;;;22.03;56.76;99670.91;4349053;32;20477;-87
2022/06/07 03:56:17;;;;;;;;;;;;;;;22.06;56.85;99669.94;4341606;33;20075;-90
2022/06/07 03:58:44;;;;;;;;;;;;;;;22.18;56.35;99674.84;4341489;33;19995;-84
2022/06/07 04:01:15;;;;;;;;;;;;;;;22.20;55.96;99673.00;4343871;32;20058;-91
2022/06/07 04:03:43;;;;;;;;;;;;;;;22.20;56.08;99666.84;4333371;33;19984;-90
2022/06/07 04:06:15;;;;;;;;;;;;;;;22.21;56.08;99673.87;4341875;33;19983;-89
2022/06/07 04:08:44;;;;;;;;;;;;;;;22.21;56.29;99664.19;4328383;33;19976;-90
2022/06/07 04:11:12;;;;;;;;;;;;;;;22.25;56.39;99657.87;4339320;32;19994;-90
2022/06/07 04:13:39;;;;;;;;;;;;;;;22.40;56.17;99660.88;4333080;32;20282;-91
2022/06/07 04:16:08;;;;;;;;;;;;;;;22.47;56.05;99662.41;4351702;32;19974;-90
2022/06/07 04:18:36;;;;;;;;;;;;;;;22.49;56.17;99652.66;4354999;32;20026;-91
2022/06/07 04:21:05;;;;;;;;;;;;;;;22.54;56.08;99644.59;4349310;32;20031;-88
2022/06/07 04:23:33;;;;;;;;;;;;;;;22.71;55.53;99648.31;4342264;32;20542;-92
2022/06/07 04:26:06;;;;;;;;;;;;;;;22.72;55.49;99642.13;4348994;32;20407;-93
2022/06/07 04:28:34;;;;;;;;;;;;;;;22.63;56.02;99647.75;4348218;32;19975;-88
2022/06/07 04:31:01;;;;;;;;;;;;;;;22.82;55.48;99640.00;4356492;32;19976;-91
2022/06/07 04:33:29;;;;;;;;;;;;;;;22.84;55.74;99637.31;4338290;32;19995;-90
2022/06/07 04:35:57;;;;;;;;;;;;;;;22.98;55.34;99635.06;4348072;32;19998;-87
2022/06/07 04:38:24;;;;;;;;;;;;;;;23.04;55.26;99629.53;4341951;33;20347;-90
2022/06/07 04:40:51;;;;;;;;;;;;;;;22.97;55.16;99638.59;4349501;32;19991;-90
2022/06/07 04:43:18;;;;;;;;;;;;;;;23.02;55.24;99631.38;4344758;32;20313;-87
2022/06/07 04:45:45;;;;;;;;;;;;;;;23.13;54.82;99644.16;4352713;32;20046;-89
2022/06/07 04:48:12;;;;;;;;;;;;;;;23.15;54.97;99637.88;4355494;32;20305;-89
2022/06/07 04:50:40;;;;;;;;;;;;;;;23.30;54.58;99640.88;4342559;32;20013;-87
2022/06/07 04:53:07;;;;;;;;;;;;;;;23.26;54.60;99639.25;4353130;32;19983;-91
2022/06/07 04:55:34;;;;;;;;;;;;;;;23.38;54.34;99644.06;4355852;32;20784;-90
2022/06/07 04:58:02;;;;;;;;;;;;;;;23.31;54.71;99647.88;4356778;32;19991;-86
2022/06/07 05:00:31;;;;;;;;;;;;;;;23.35;54.73;99646.81;4355189;32;20299;-90
2022/06/07 05:02:59;;;;;;;;;;;;;;;23.47;54.59;99646.34;4343179;32;19975;-90
2022/06/07 05:05:29;;;;;;;;;;;;;;;23.55;54.45;99646.91;4356130;32;20305;-80
2022/06/07 05:07:58;;;;;;;;;;;;;;;23.60;54.32;99639.62;4338435;32;20337;-86
2022/06/07 05:10:29;;;;;;;;;;;;;;;23.67;54.07;99641.13;4340137;32;19991;-78
2022/06/07 05:12:58;;;;;;;;;;;;;;;23.74;53.96;99641.75;4344758;32;20047;-86
2022/06/07 05:15:32;;;;;;;;;;;;;;;23.85;53.81;99643.94;4325737;33;19988;-80
2022/06/07 05:18:04;;;;;;;;;;;;;;;23.90;53.67;99641.97;4328524;32;19996;-82
2022/06/07 05:20:31;;;;;;;;;;;;;;;24.01;53.66;99649.44;4312420;33;20023;-89
2022/06/07 05:22:59;;;;;;;;;;;;;;;24.09;52.87;99645.56;4319555;33;20031;-88
2022/06/07 05:25:26;;;;;;;;;;;;;;;24.25;52.14;99644.88;4319929;33;20377;-85
2022/06/07 05:27:55;;;;;;;;;;;;;;;24.18;52.46;99646.06;4312284;33;20043;-86
2022/06/07 05:30:23;;;;;;;;;;;;;;;24.17;52.90;99649.66;4325651;33;19998;-85
2022/06/07 05:32:51;;;;;;;;;;;;;;;24.29;52.54;99650.00;4327948;32;20396;-84
2022/06/07 05:35:19;;;;;;;;;;;;;;;24.23;52.74;99649.41;4332996;32;19995;-85
2022/06/07 05:37:57;;;;;;;;;;;;;;;24.14;53.80;99655.94;4332388;32;19980;-84
2022/06/07 05:40:26;;;;;;;;;;;;;;;24.34;53.53;99652.41;4345775;32;20795;-85
2022/06/07 05:43:06;;;;;;;;;;;;;;;24.48;52.49;99654.53;4330637;32;20045;-81
2022/06/07 05:45:33;;;;;;;;;;;;;;;24.54;52.15;99654.25;4329781;32;20050;-84
2022/06/07 05:48:01;;;;;;;;;;;;;;;24.58;51.92;99651.37;4332217;32;20063;-83
2022/06/07 05:50:29;;;;;;;;;;;;;;;24.31;53.57;99647.25;4344380;32;20046;-89
2022/06/07 05:52:58;;;;;;;;;;;;;;;24.52;53.68;99656.94;4314901;32;20033;-90
2022/06/07 05:55:25;;;;;;;;;;;;;;;24.53;53.48;99647.22;4331332;32;20314;-88
2022/06/07 05:57:54;;;;;;;;;;;;;;;24.61;52.50;99649.53;4347347;32;19991;-85
2022/06/07 06:00:22;;;;;;;;;;;;;;;24.63;52.34;99650.31;4334995;32;19984;-89
2022/06/07 06:02:50;;;;;;;;;;;;;;;24.84;51.83;99652.00;4337412;32;20007;-85
2022/06/07 06:05:18;;;;;;;;;;;;;;;24.92;51.35;99644.56;4331833;32;20478;-85
2022/06/07 06:10:34;;;;;;;;;;;;;;;25.29;50.17;99642.87;4322244;33;19988;-85
2022/06/07 06:13:01;;;;;;;;;;;;;;;25.37;50.00;99646.03;4336268;32;19987;-86
2022/06/07 06:15:28;;;;;;;;;;;;;;;25.84;49.39;99642.84;4324234;32;20043;-80
2022/06/07 06:17:55;;;;;;;;;;;;;;;26.28;47.46;99639.72;4340150;32;20001;-86
2022/06/07 06:20:25;;;;;;;;;;;;;;;26.47;47.36;99649.38;4324102;32;20625;-86
2022/06/07 06:22:52;;;;;;;;;;;;;;;26.62;47.13;99645.97;4338704;32;19992;-84
2022/06/07 06:25:19;;;;;;;;;;;;;;;27.00;46.11;99637.72;4333857;32;20288;-85
2022/06/07 06:27:47;;;;;;;;;;;;;;;27.24;45.28;99635.53;4329542;32;19983;-86
2022/06/07 06:30:14;;;;;;;;;;;;;;;27.59;44.13;99636.19;4335428;32;20000;-82
2022/06/07 06:32:43;;;;;;;;;;;;;;;27.81;44.23;99636.69;4337812;32;20290;-86
2022/06/07 06:35:10;;;;;;;;;;;;;;;27.86;44.79;99635.56;4347231;32;19986;-86
2022/06/07 06:37:37;;;;;;;;;;;;;;;28.11;42.74;99633.19;4343526;32;20851;-84
2022/06/07 06:40:05;;;;;;;;;;;;;;;28.52;41.13;99632.47;4337865;32;19980;-86
2022/06/07 06:42:34;;;;;;;;;;;;;;;28.54;41.64;99625.25;4350178;32;19987;-88
2022/06/07 06:45:02;;;;;;;;;;;;;;;28.79;42.32;99629.94;4347404;32;20493;-88
2022/06/07 06:47:29;;;;;;;;;;;;;;;29.12;39.60;99632.28;4344419;32;20050;-86
2022/06/07 06:49:56;;;;;;;;;;;;;;;29.13;38.37;99623.34;4348613;32;20007;-82
2022/06/07 06:52:24;;;;;;;;;;;;;;;29.01;41.25;99632.12;4343929;32;19992;-87
2022/06/07 06:54:51;;;;;;;;;;;;;;;29.23;40.73;99628.06;4349657;32;19979;-83
2022/06/07 06:57:18;;;;;;;;;;;;;;;29.15;40.36;99624.09;4334564;32;20765;-80
2022/06/07 06:59:51;;;;;;;;;;;;;;;29.70;38.34;99621.47;4326941;32;20078;-84
2022/06/07 07:02:19;;;;;;;;;;;;;;;30.19;37.13;99618.16;4337493;32;20007;-85
2022/06/07 07:04:48;;;;;;;;;;;;;;;30.51;35.76;99619.47;4362848;32;20015;-85
2022/06/07 07:07:17;;;;;;;;;;;;;;;30.22;36.33;99628.66;4350004;32;20029;-91
2022/06/07 07:09:44;;;;;;;;;;;;;;;29.57;38.52;99622.25;4343747;32;19987;-85
2022/06/07 07:12:11;;;;;;;;;;;;;;;29.94;36.89;99619.84;4327706;32;20038;-92
2022/06/07 07:14:38;;;;;;;;;;;;;;;30.45;36.40;99614.56;4343589;32;20006;-91
2022/06/07 07:17:05;;;;;;;;;;;;;;;30.65;37.27;99610.47;4349894;32;20054;-96
2022/06/07 07:19:32;;;;;;;;;;;;;;;30.14;38.75;99615.78;4353464;32;20050;-92
2022/06/07 07:22:02;;;;;;;;;;;;;;;30.32;38.55;99619.06;4351471;32;19987;-89
2022/06/07 07:24:30;;;;;;;;;;;;;;;30.89;35.97;99613.25;4364358;32;20037;-93
2022/06/07 07:26:58;;;;;;;;;;;;;;;31.12;34.50;99610.75;4364721;32;19990;-93
2022/06/07 07:29:26;;;;;;;;;;;;;;;30.46;37.29;99605.56;4350748;32;20009;-92
2022/06/07 07:31:54;;;;;;;;;;;;;;;30.27;37.79;99605.16;4362148;32;20029;-88
2022/06/07 07:34:22;;;;;;;;;;;;;;;30.42;37.72;99603.25;4364191;32;20003;-95
2022/06/07 07:36:51;;;;;;;;;;;;;;;30.39;38.01;99596.28;4345132;32;19979;-96
2022/06/07 07:39:21;;;;;;;;;;;;;;;30.75;37.30;99589.28;4356008;32;19971;-95
2022/06/07 07:41:51;;;;;;;;;;;;;;;30.83;36.93;99597.66;4358673;32;19990;-96
2022/06/07 07:44:18;;;;;;;;;;;;;;;31.17;36.25;99603.22;4354615;32;20041;-95
2022/06/07 07:46:47;;;;;;;;;;;;;;;30.89;37.40;99597.22;4369156;32;20400;-95
2022/06/07 07:49:16;;;;;;;;;;;;;;;31.03;35.47;99599.75;4356724;32;19994;-91
2022/06/07 07:51:44;;;;;;;;;;;;;;;31.24;36.46;99601.84;4361348;32;20092;-95
2022/06/07 07:54:12;;;;;;;;;;;;;;;31.85;34.64;99601.75;4351720;32;19987;-95
2022/06/07 07:56:39;;;;;;;;;;;;;;;31.86;34.78;99595.44;4365922;32;20014;-96
2022/06/07 07:59:07;;;;;;;;;;;;;;;31.50;34.46;99597.25;4347323;32;20040;-95
2022/06/07 08:01:36;;;;;;;;;;;;;;;32.08;34.34;99600.88;4351608;32;20001;-96
2022/06/07 08:04:04;;;;;;;;;;;;;;;32.02;34.52;99592.47;4348722;32;19983;-95
2022/06/07 08:06:31;;;;;;;;;;;;;;;31.95;31.87;99600.97;4364964;32;19999;-95
2022/06/07 08:08:59;;;;;;;;;;;;;;;32.08;33.08;99589.31;4366570;32;19995;-95
2022/06/07 08:11:27;;;;;;;;;;;;;;;32.07;32.77;99595.63;4362188;32;20002;-94
2022/06/07 08:13:54;;;;;;;;;;;;;;;32.08;32.21;99592.84;4364297;32;19995;-94
2022/06/07 08:16:21;;;;;;;;;;;;;;;32.39;31.52;99591.31;4368502;32;20834;-95
2022/06/07 08:18:49;;;;;;;;;;;;;;;32.41;31.85;99583.97;4354646;32;19985;-94
2022/06/07 08:21:16;;;;;;;;;;;;;;;32.60;30.44;99582.56;4366943;32;19998;-94
2022/06/07 08:23:43;;;;;;;;;;;;;;;33.12;29.50;99581.06;4357278;32;19991;-94
2022/06/07 08:26:11;;;;;;;;;;;;;;;32.52;31.47;99579.66;4360072;32;19955;-96
2022/06/07 08:28:41;;;;;;;;;;;;;;;32.83;30.69;99578.91;4367035;32;20480;-93
2022/06/07 08:31:12;;;;;;;;;;;;;;;32.77;33.03;99579.41;4353867;32;20015;-96
2022/06/07 08:39:10;;;;;;;;;;;;;;;33.39;30.51;99571.72;4364087;32;19983;-96
2022/06/07 08:41:57;;;;;;;;;;;;;;;33.45;30.47;99576.59;4367992;32;20075;-90
2022/06/07 08:44:27;;;;;;;;;;;;;;;33.59;29.29;99568.25;4347801;32;20009;-95
2022/06/07 08:47:01;;;;;;;;;;;;;;;33.22;32.27;99576.66;4343039;32;20676;-92
2022/06/07 08:49:28;;;;;;;;;;;;;;;32.99;30.67;99573.16;4342080;32;19979;-96
2022/06/07 08:52:10;;;;;;;;;;;;;;;33.77;28.80;99571.22;4345295;32;20332;-91
2022/06/07 08:54:38;;;;;;;;;;;;;;;33.68;29.02;99570.16;4352955;32;19997;-94
2022/06/07 08:57:19;;;;;;;;;;;;;;;33.69;31.36;99571.00;4339528;32;20073;-89
2022/06/07 08:59:57;;;;;;;;;;;;;;;34.15;27.83;99565.28;4352744;32;19971;-89
2022/06/07 09:02:31;;;;;;;;;;;;;;;34.17;29.41;99560.59;4360241;32;19995;-94
2022/06/07 09:04:58;;;;;;;;;;;;;;;34.11;28.86;99568.34;4369769;32;20870;-93
2022/06/07 09:07:25;;;;;;;;;;;;;;;33.87;29.32;99565.91;4369191;32;20392;-90
2022/06/07 09:12:41;;;;;;;;;;;;;;;34.00;28.74;99566.56;4350612;32;20029;-86
2022/06/07 09:15:11;;;;;;;;;;;;;;;34.68;27.00;99565.09;4350255;32;20059;-84
2022/06/07 09:17:40;;;;;;;;;;;;;;;33.77;29.15;99569.38;4366403;32;19983;-80
2022/06/07 09:20:11;;;;;;;;;;;;;;;33.67;28.10;99562.25;4363293;32;19991;-84
2022/06/07 09:22:42;;;;;;;;;;;;;;;33.43;29.16;99555.22;4351482;32;20352;-94
2022/06/07 09:25:28;;;;;;;;;;;;;;;33.91;28.28;99565.50;4349545;32;19964;-83
2022/06/07 09:27:57;;;;;;;;;;;;;;;33.67;29.78;99562.25;4373296;32;19952;-96
2022/06/07 09:30:26;;;;;;;;;;;;;;;33.61;30.40;99558.25;4374541;32;20305;-88
2022/06/07 09:32:53;;;;;;;;;;;;;;;33.20;29.89;99545.56;4372877;32;19970;-88
2022/06/07 09:35:22;;;;;;;;;;;;;;;32.97;28.83;99547.47;4360012;32;19985;-93
2022/06/07 09:37:51;;;;;;;;;;;;;;;32.70;31.32;99545.16;4353086;32;19986;-95
2022/06/07 09:40:19;;;;;;;;;;;;;;;32.86;28.38;99534.88;4354147;32;20133;-94
2022/06/07 09:42:54;;;;;;;;;;;;;;;33.42;31.13;99536.59;4355732;32;20132;-94
2022/06/07 09:45:24;;;;;;;;;;;;;;;33.65;28.73;99543.56;4359024;32;19995;-94
2022/06/07 09:47:51;;;;;;;;;;;;;;;32.50;29.59;99539.56;4362658;32;20038;-91
2022/06/07 09:50:20;;;;;;;;;;;;;;;32.28;29.74;99537.72;4365427;32;20058;-94
2022/06/07 09:52:49;;;;;;;;;;;;;;;31.83;31.04;99534.94;4359424;32;20025;-95
2022/06/07 09:55:16;;;;;;;;;;;;;;;32.04;31.54;99536.97;4353707;32;20827;-91
2022/06/07 09:57:47;;;;;;;;;;;;;;;32.69;29.68;99528.22;4363082;32;20651;-89
2022/06/07 10:00:24;;;;;;;;;;;;;;;32.86;31.08;99529.53;4352456;32;19971;-90
2022/06/07 10:02:58;;;;;;;;;;;;;;;33.12;28.36;99524.72;4340700;32;21291;-88
2022/06/07 10:05:25;;;;;;;;;;;;;;;33.30;31.42;99522.34;4356545;32;20062;-92
2022/06/07 10:08:08;;;;;;;;;;;;;;;33.67;30.43;99520.13;4349177;32;20881;-89
2022/06/07 10:10:40;;;;;;;;;;;;;;;33.63;31.16;99513.31;4357413;32;20549;-91
2022/06/07 10:13:26;;;;;;;;;;;;;;;34.20;27.70;99513.81;4335092;32;19983;-90
2022/06/07 10:15:59;;;;;;;;;;;;;;;34.57;25.84;99514.13;4360646;32;20025;-89
2022/06/07 10:18:46;;;;;;;;;;;;;;;34.09;26.98;99514.75;4371600;32;19995;-86
2022/06/07 10:21:19;;;;;;;;;;;;;;;33.68;28.11;99511.09;4361999;32;19987;-90
2022/06/07 10:24:05;;;;;;;;;;;;;;;33.25;28.06;99514.69;4363691;32;20116;-88
2022/06/07 10:27:04;;;;;;;;;;;;;;;33.36;28.52;99510.25;4351686;32;19995;-88
2022/06/07 10:29:34;;;;;;;;;;;;;;;32.97;29.65;99501.88;4319783;32;20010;-88
2022/06/07 10:32:08;;;;;;;;;;;;;;;33.23;28.61;99500.56;4163887;32;5001858;-89
2022/06/07 10:34:44;;;;;;;;;;;;;;;33.54;28.65;99492.66;4363141;32;20366;-86
2022/06/07 10:37:20;;;;;;;;;;;;;;;32.49;29.75;99496.84;4379686;32;20021;-90
2022/06/07 10:40:01;;;;;;;;;;;;;;;32.51;30.83;99494.84;4371372;32;20030;-86
2022/06/07 10:42:41;;;;;;;;;;;;;;;31.64;31.82;99486.47;4361357;32;20030;-86
2022/06/07 10:45:21;;;;;;;;;;;;;;;31.46;30.75;99491.41;4348633;32;19987;-90
2022/06/07 10:47:50;;;;;;;;;;;;;;;31.80;31.73;99491.50;4348399;32;20033;-87
2022/06/07 10:50:22;;;;;;;;;;;;;;;31.65;32.98;99482.81;4343007;32;19982;-87
2022/06/07 10:53:06;;;;;;;;;;;;;;;32.17;31.93;99479.62;4360091;32;19974;-84
2022/06/07 10:55:38;;;;;;;;;;;;;;;31.70;30.41;99472.63;4354559;32;19987;-87
2022/06/07 10:58:11;;;;;;;;;;;;;;;31.74;30.50;99476.75;4334533;32;21321;-90
2022/06/07 11:00:40;;;;;;;;;;;;;;;31.74;31.37;99468.72;4354081;32;20469;-87
2022/06/07 11:03:11;;;;;;;;;;;;;;;32.14;31.12;99460.28;4355660;32;19979;-89
2022/06/07 11:11:14;;;;;;;;;;;;;;;32.65;29.52;99449.88;4350698;32;20050;-86
2022/06/07 11:13:59;;;;;;;;;;;;;;;32.36;30.16;99452.22;4353107;32;20391;-86
2022/06/07 11:16:30;;;;;;;;;;;;;;;32.45;30.54;99445.28;4352406;32;20711;-85
2022/06/07 11:18:59;;;;;;;;;;;;;;;32.61;28.78;99444.87;4359198;32;19991;-85
2022/06/07 11:21:29;;;;;;;;;;;;;;;31.93;30.67;99450.28;4356299;32;20009;-88
2022/06/07 11:23:57;;;;;;;;;;;;;;;32.11;31.03;99447.13;4357082;32;19983;-87
2022/06/07 11:26:37;;;;;;;;;;;;;;;32.50;29.15;99436.87;4347773;32;20041;-87
2022/06/07 11:29:08;;;;;;;;;;;;;;;32.61;29.56;99444.87;4347932;32;20002;-87
2022/06/07 11:31:35;;;;;;;;;;;;;;;33.23;28.78;99428.13;4347605;32;19983;-86
2022/06/07 11:34:11;;;;;;;;;;;;;;;33.20;30.46;99425.69;4359507;32;19994;-86
2022/06/07 11:36:40;;;;;;;;;;;;;;;32.65;28.25;99424.91;4354406;32;19986;-92
2022/06/07 11:39:27;;;;;;;;;;;;;;;32.65;27.80;99433.81;4352320;32;20046;-87
2022/06/07 11:41:55;;;;;;;;;;;;;;;31.86;29.00;99432.97;4355798;32;19999;-85
2022/06/07 11:44:30;;;;;;;;;;;;;;;32.17;29.46;99420.72;4357960;32;19975;-84
2022/06/07 11:46:57;;;;;;;;;;;;;;;31.68;30.63;99418.34;4308096;32;1114038;-84
2022/06/07 11:49:29;;;;;;;;;;;;;;;31.85;29.96;99414.37;4351825;32;20640;-85
2022/06/07 11:52:07;;;;;;;;;;;;;;;31.64;29.24;99408.88;4365149;32;20002;-84
2022/06/07 11:54:45;;;;;;;;;;;;;;;31.52;30.92;99401.78;4357234;32;20491;-85
2022/06/07 11:57:36;;;;;;;;;;;;;;;31.38;31.03;99401.06;4349982;32;20236;-88
2022/06/07 12:00:19;;;;;;;;;;;;;;;31.37;30.53;99410.06;4354865;32;19979;-83
2022/06/07 12:03:00;;;;;;;;;;;;;;;31.34;30.03;99407.63;4361424;32;19986;-86
2022/06/07 12:05:29;;;;;;;;;;;;;;;31.32;29.66;99401.50;4357148;32;19996;-85
2022/06/07 12:08:25;;;;;;;;;;;;;;;31.44;31.01;99389.88;4330044;32;19999;-86
2022/06/07 12:10:58;;;;;;;;;;;;;;;31.77;30.67;99390.03;4365006;32;19982;-81
2022/06/07 12:16:13;;;;;;;;;;;;;;;32.15;28.37;99384.31;4351174;32;20344;-85
2022/06/07 12:18:44;;;;;;;;;;;;;;;31.58;28.18;99391.47;4360568;32;19983;-84
2022/06/07 12:21:15;;;;;;;;;;;;;;;31.50;28.99;99389.41;4325413;32;20375;-84
2022/06/07 12:23:43;;;;;;;;;;;;;;;31.62;30.04;99381.38;4364664;32;20014;-85
2022/06/07 12:26:16;;;;;;;;;;;;;;;31.04;30.57;99382.19;4348193;32;20009;-83
2022/06/07 12:29:07;;;;;;;;;;;;;;;30.91;30.81;99376.09;4361256;32;20530;-82
2022/06/07 12:31:40;;;;;;;;;;;;;;;31.00;31.24;99380.72;4366161;32;19998;-86
2022/06/07 12:34:17;;;;;;;;;;;;;;;31.27;30.60;99377.78;4365389;32;19983;-84
2022/06/07 12:36:46;;;;;;;;;;;;;;;31.58;32.81;99375.41;4344055;32;19990;-81
2022/06/07 12:39:14;;;;;;;;;;;;;;;31.17;31.53;99374.09;4347786;32;20011;-82
2022/06/07 12:41:46;;;;;;;;;;;;;;;31.32;30.13;99374.75;4361339;32;20066;-81
2022/06/07 12:44:19;;;;;;;;;;;;;;;31.93;30.04;99371.78;4365009;32;20026;-82
2022/06/07 12:46:46;;;;;;;;;;;;;;;31.89;28.38;99368.50;4352376;32;20674;-83
2022/06/07 12:49:21;;;;;;;;;;;;;;;31.88;29.05;99366.81;4365060;32;20280;-85
2022/06/07 12:51:55;;;;;;;;;;;;;;;31.87;29.00;99365.06;4351037;32;20375;-89
2022/06/07 12:54:26;;;;;;;;;;;;;;;31.66;30.15;99358.75;4344900;32;20051;-90
2022/06/07 12:56:57;;;;;;;;;;;;;;;31.63;28.94;99359.84;4342286;32;19987;-95
2022/06/07 12:59:35;;;;;;;;;;;;;;;31.70;28.71;99360.22;4341220;32;20002;-84
2022/06/07 13:02:03;;;;;;;;;;;;;;;31.74;29.46;99359.84;4354133;32;19979;-94
2022/06/07 13:04:32;;;;;;;;;;;;;;;30.92;29.87;99351.06;4357092;32;20004;-91
2022/06/07 13:07:17;;;;;;;;;;;;;;;31.09;29.88;99356.94;4347868;32;20356;-93
2022/06/07 13:10:05;;;;;;;;;;;;;;;31.28;30.29;99351.88;4343743;32;19975;-94
2022/06/07 13:12:33;;;;;;;;;;;;;;;31.28;29.50;99352.72;4347561;32;20278;-83
2022/06/07 13:15:02;;;;;;;;;;;;;;;30.66;31.41;99349.47;4355638;32;19986;-93
2022/06/07 13:17:31;;;;;;;;;;;;;;;30.63;31.41;99350.53;4361585;32;19978;-93
2022/06/07 13:19:58;;;;;;;;;;;;;;;30.39;32.40;99347.91;4369259;32;20021;-91
2022/06/07 13:22:26;;;;;;;;;;;;;;;30.40;32.61;99344.25;4352682;32;19990;-95
2022/06/07 13:24:56;;;;;;;;;;;;;;;30.38;32.50;99348.88;4363166;32;20254;-85